ADDS METAR Data INFO
IDs: Format: Raw Decoded Include TAF

Data at: 1312 UTC 29 Mar 2017

Region: TOP
KATL 291252Z 09006KT 10SM SCT200 SCT250 18/13 A3006 RMK AO2 SLP171 T01830128

KBOS 291309Z 36009KT 10SM OVC009 04/03 A3001 RMK AO2 T00390028

KBWI 291254Z 34011G18KT 10SM FEW044 11/03 A3011 RMK AO2 SLP195 T01060033

KCLE 291251Z 00000KT 7SM FEW006 FEW024 06/02 A3028 RMK AO2 SLP258 T00560017

KCLT 291252Z 02008KT 10SM FEW070 17/11 A3007 RMK AO2 SLP176 T01720106

KCVG 291252Z 07010KT 10SM SCT015 08/04 A3017 RMK AO2 SLP216 SCT V BKN T00780039

KDCA 291252Z 01010KT 10SM SCT030 BKN040 13/07 A3011 RMK AO2 SLP194 T01330072

KDEN 291253Z 35008KT 4SM -RASN BR OVC003 02/01 A3009 RMK AO2 RAB30 SLP184 P0001 T00220011

KDFW 291253Z 17006KT 10SM FEW060 FEW130 SCT220 BKN280 16/15 A2966 RMK AO2 SLP035 T01560150 $

KDTW 291253Z 03004KT 8SM CLR 04/00 A3029 RMK AO2 SLP262 T00440000 $

KEWR 291304Z 33015KT 10SM FEW021 BKN027 07/03 A3007 RMK AO2 T00720028

KFLL 291253Z VRB03KT 10SM FEW035 24/19 A3002 RMK AO2 SLP166 T02440189 $

KIAD 291252Z 02007KT 10SM BKN021 BKN036 BKN045 12/08 A3011 RMK AO2 SLP194 T01220083

KIAH 291253Z 11011KT 10SM SCT042 BKN075 BKN250 22/19 A2981 RMK AO2 LTG DSNT NW SLP093 LN CB DSNT NE-NW MOVG NE T02220194

KJFK 291251Z 35015KT 10SM FEW019 BKN028 08/04 A3006 RMK AO2 SLP178 T00780039

KLAS 291256Z 21004KT 10SM SCT250 12/M03 A3011 RMK AO2 SLP185 T01171033

KLAX 291253Z 00000KT 10SM FEW010 13/11 A3000 RMK AO2 SLP157 T01330111

KLGA 291251Z 35010KT 10SM BKN021 OVC032 08/03 A3006 RMK AO2 SLP178 T00830033

KMCO 291253Z 30003KT 10SM CLR 22/17 A3005 RMK AO2 SLP174 T02220167

KMDW 291253Z 05007KT 10SM FEW004 BKN200 OVC250 03/02 A3025 RMK AO2 SLP251 T00330022

KMEM 291254Z 15006KT 10SM FEW060 SCT150 BKN250 18/13 A2994 RMK AO2 SLP134 VIRGA W-N T01780133

KMIA 291253Z COR VRB04KT 10SM FEW027 25/19 A3003 RMK AO2 SLP170 T02490185 $

KMSP 291253Z 13005KT 10SM OVC150 07/01 A3022 RMK AO2 SLP237 T00720006

KORD 291306Z 06008KT 6SM BR SCT004 SCT180 OVC250 03/02 A3024 RMK AO2 T00280017

KPDX 291253Z 14007KT 10SM SCT017 BKN023 OVC033 10/07 A3000 RMK AO2 RAB1157E33 SLP159 P0001 T01000072

KPHL 291254Z 35011KT 10SM SCT026 08/02 A3010 RMK AO2 SLP192 T00780017

KPHX 291251Z 00000KT 10SM FEW180 FEW250 15/M01 A2994 RMK AO2 SLP127 T01501011

KPIT 291251Z 03006KT 10SM OVC022 07/03 A3019 RMK AO2 SLP235 BINOVC T00720033

KSAN 291251Z 00000KT 10SM CLR 13/06 A3001 RMK AO2 SLP161 T01330061

KSEA 291253Z 13005KT 9SM -RA OVC027 08/07 A2990 RMK AO2 SLP133 P0006 T00780072

KSFO 291256Z 29012KT 10SM FEW200 12/08 A3017 RMK AO2 SLP217 T01170083

KSLC 291254Z 14004KT 10SM CLR 03/M01 A3023 RMK AO2 SLP230 T00281011

KSTL 291303Z 10012G17KT 9SM OVC029 10/07 A3003 RMK AO2 T01000067

KTPA 291253Z 10004KT 10SM CLR 22/17 A3004 RMK AO2 SLP171 T02220172


Page loaded:  13:12 UTC  |   06:12 AM Pacific  |   07:12 AM Mountain  |   08:12 AM Central  |   09:12 AM Eastern

 

ADVISORIES

FORECASTS

FORECASTS

OBSERVATIONS

USER TOOLS

ABOUT US